Time;durP1;ratioP1;P1;durP2;ratioP2;P2;SDS_P1;SDS_P2;PMS_P1;PMS_P2;Temp;Humidity;BMP_temperature;BMP_pressure;BME280_temperature;BME280_humidity;BME280_pressure;Samples;Min_cycle;Max_cycle;Signal;HPM_P1;HPM_P2
2023/10/10 00:01:38;;;;;;;27.80;7.70;;;;;;;;;;4994694;28;20036;-67
2023/10/10 00:04:05;;;;;;;24.80;7.75;;;;;;;;;;4994556;28;20023;-67
2023/10/10 00:06:33;;;;;;;25.08;7.45;;;;;;;;;;4994387;28;20065;-67
2023/10/10 00:08:58;;;;;;;21.60;7.05;;;;;;;;;;4994850;28;20037;-67
2023/10/10 00:11:26;;;;;;;24.20;8.57;;;;;;;;;;4994239;28;20042;-67
2023/10/10 00:14:04;;;;;;;24.60;7.72;;;;;;;;;;4994291;28;20028;-67
2023/10/10 00:16:37;;;;;;;19.08;7.53;;;;;;;;;;4994723;28;20513;-67
2023/10/10 00:19:17;;;;;;;25.27;8.52;;;;;;;;;;4994443;28;20026;-67
2023/10/10 00:21:43;;;;;;;23.80;8.50;;;;;;;;;;4993967;28;20057;-67
2023/10/10 00:24:11;;;;;;;21.38;6.68;;;;;;;;;;4993992;28;20062;-67
2023/10/10 00:26:37;;;;;;;25.90;6.63;;;;;;;;;;4994279;28;20085;-67
2023/10/10 00:29:06;;;;;;;28.00;7.63;;;;;;;;;;4993938;28;20026;-67
2023/10/10 00:31:31;;;;;;;26.30;7.75;;;;;;;;;;4994395;28;20475;-67
2023/10/10 00:33:56;;;;;;;21.03;6.60;;;;;;;;;;4993775;28;20077;-67
2023/10/10 00:36:33;;;;;;;23.45;7.68;;;;;;;;;;4994089;28;20252;-67
2023/10/10 00:39:22;;;;;;;34.63;8.77;;;;;;;;;;4993849;28;20474;-67
2023/10/10 00:44:17;;;;;;;17.38;6.78;;;;;;;;;;4993642;28;20022;-67
2023/10/10 00:46:47;;;;;;;21.25;7.57;;;;;;;;;;4993829;28;20485;-67
2023/10/10 00:49:13;;;;;;;19.70;7.80;;;;;;;;;;4993834;28;20053;-67
2023/10/10 00:51:39;;;;;;;23.70;7.45;;;;;;;;;;4993924;28;20061;-67
2023/10/10 00:56:54;;;;;;;25.63;6.80;;;;;;;;;;4993910;28;20026;-67
2023/10/10 00:59:48;;;;;;;22.02;7.47;;;;;;;;;;4987964;28;20054;-66
2023/10/10 01:02:17;;;;;;;22.83;7.15;;;;;;;;;;4986818;28;20056;-66
2023/10/10 01:04:49;;;;;;;24.90;8.10;;;;;;;;;;4993304;28;20022;-67
2023/10/10 01:07:19;;;;;;;23.73;6.97;;;;;;;;;;4993600;28;20470;-66
2023/10/10 01:09:55;;;;;;;22.35;7.50;;;;;;;;;;4993346;28;20055;-67
2023/10/10 01:12:22;;;;;;;20.20;7.32;;;;;;;;;;4993823;28;20022;-67
2023/10/10 01:14:52;;;;;;;26.50;8.05;;;;;;;;;;4993761;28;20101;-66
2023/10/10 01:17:19;;;;;;;25.52;7.40;;;;;;;;;;4993243;28;20014;-66
2023/10/10 01:19:45;;;;;;;24.00;7.63;;;;;;;;;;4993264;28;20486;-67
2023/10/10 01:22:22;;;;;;;24.17;7.37;;;;;;;;;;4993298;28;20033;-66
2023/10/10 01:24:51;;;;;;;24.45;7.00;;;;;;;;;;4992962;28;20057;-66
2023/10/10 01:27:21;;;;;;;27.80;7.35;;;;;;;;;;4993653;28;20022;-66
2023/10/10 01:30:17;;;;;;;24.98;7.40;;;;;;;;;;4993067;28;20026;-66
2023/10/10 01:32:39;;;;;;;19.73;6.93;;;;;;;;;;4992974;28;20022;-66
2023/10/10 01:35:15;;;;;;;24.30;7.85;;;;;;;;;;4993283;28;20033;-66
2023/10/10 01:37:41;;;;;;;23.20;7.50;;;;;;;;;;4996728;28;20080;-67
2023/10/10 01:40:14;;;;;;;26.20;8.15;;;;;;;;;;4997279;28;20481;-67
2023/10/10 01:42:45;;;;;;;21.73;7.93;;;;;;;;;;4997080;28;20553;-67
2023/10/10 01:45:11;;;;;;;25.98;7.25;;;;;;;;;;4996905;28;20490;-66
2023/10/10 01:47:39;;;;;;;20.90;7.35;;;;;;;;;;4997205;28;20049;-66
2023/10/10 01:50:09;;;;;;;27.88;8.13;;;;;;;;;;4997117;28;20026;-66
2023/10/10 01:52:36;;;;;;;29.95;8.98;;;;;;;;;;4997126;28;20494;-66
2023/10/10 01:55:01;;;;;;;28.98;7.70;;;;;;;;;;4997149;28;20375;-66
2023/10/10 01:57:26;;;;;;;19.67;7.23;;;;;;;;;;4996905;28;20029;-66
2023/10/10 01:59:52;;;;;;;23.57;7.17;;;;;;;;;;4996609;28;20648;-66
2023/10/10 02:02:23;;;;;;;23.38;7.38;;;;;;;;;;4997331;28;20033;-67
2023/10/10 02:04:51;;;;;;;28.27;8.23;;;;;;;;;;4996686;28;20501;-66
2023/10/10 02:07:23;;;;;;;20.38;7.40;;;;;;;;;;4995896;28;20021;-66
2023/10/10 02:10:00;;;;;;;22.50;7.32;;;;;;;;;;4996508;28;20514;-67
2023/10/10 02:12:26;;;;;;;27.20;9.00;;;;;;;;;;4990623;28;20397;-66
2023/10/10 02:14:54;;;;;;;23.85;8.35;;;;;;;;;;4996921;28;20026;-66
2023/10/10 02:17:21;;;;;;;24.25;7.47;;;;;;;;;;4996455;28;20026;-66
2023/10/10 02:19:53;;;;;;;28.90;8.60;;;;;;;;;;4996863;28;20030;-66
2023/10/10 02:22:23;;;;;;;27.10;7.75;;;;;;;;;;4996471;28;20092;-66
2023/10/10 02:25:36;;;;;;;28.08;7.25;;;;;;;;;;4996687;28;20033;-66
2023/10/10 02:27:54;;;;;;;24.10;7.32;;;;;;;;;;4990378;28;20045;-66
2023/10/10 02:30:25;;;;;;;23.67;7.43;;;;;;;;;;4996450;28;20032;-66
2023/10/10 02:32:57;;;;;;;21.13;7.43;;;;;;;;;;4996680;28;20466;-66
2023/10/10 02:35:27;;;;;;;29.15;7.38;;;;;;;;;;4996425;28;20475;-66
2023/10/10 02:37:54;;;;;;;26.13;7.63;;;;;;;;;;4996285;28;20022;-66
2023/10/10 02:40:19;;;;;;;26.85;7.75;;;;;;;;;;4995976;28;20022;-66
2023/10/10 02:43:10;;;;;;;27.77;8.18;;;;;;;;;;4994978;28;20105;-67
2023/10/10 02:45:36;;;;;;;27.63;8.68;;;;;;;;;;4996041;28;20467;-66
2023/10/10 02:48:06;;;;;;;23.27;6.72;;;;;;;;;;4995937;28;20030;-66
2023/10/10 02:50:41;;;;;;;23.17;7.50;;;;;;;;;;4996127;28;20433;-66
2023/10/10 02:53:09;;;;;;;22.23;6.80;;;;;;;;;;4996291;28;20033;-66
2023/10/10 02:55:41;;;;;;;23.67;7.50;;;;;;;;;;4995679;28;20076;-67
2023/10/10 02:58:21;;;;;;;29.65;7.40;;;;;;;;;;4996155;28;20018;-66
2023/10/10 03:00:51;;;;;;;21.27;7.75;;;;;;;;;;4995901;28;20038;-66
2023/10/10 03:03:19;;;;;;;21.80;7.57;;;;;;;;;;4996068;28;20049;-66
2023/10/10 03:05:53;;;;;;;19.63;6.47;;;;;;;;;;4995149;28;20014;-66
2023/10/10 03:08:36;;;;;;;25.58;8.07;;;;;;;;;;4995426;28;20026;-66
2023/10/10 03:11:02;;;;;;;21.27;7.68;;;;;;;;;;4995629;28;20549;-66
2023/10/10 03:13:37;;;;;;;24.58;7.30;;;;;;;;;;4995524;28;20014;-67
2023/10/10 03:34:44;;;;;;;22.92;6.78;;;;;;;;;;4991522;28;20036;-67
2023/10/10 03:40:21;;;;;;;19.58;6.53;;;;;;;;;;4986026;28;20030;-67
2023/10/10 05:24:42;;;;;;;25.13;6.35;;;;;;;;;;4993877;28;20497;-66
2023/10/10 05:27:08;;;;;;;13.38;4.90;;;;;;;;;;4993878;28;20097;-67
2023/10/10 05:29:33;;;;;;;13.13;5.65;;;;;;;;;;4993934;28;20050;-66
2023/10/10 05:31:59;;;;;;;11.52;4.32;;;;;;;;;;4993965;28;20097;-67
2023/10/10 05:34:25;;;;;;;12.73;4.47;;;;;;;;;;4993809;28;20019;-67
2023/10/10 05:36:50;;;;;;;16.02;5.10;;;;;;;;;;4994090;28;20026;-67
2023/10/10 05:39:20;;;;;;;10.87;3.90;;;;;;;;;;4993839;28;20470;-67
2023/10/10 05:41:47;;;;;;;11.00;4.32;;;;;;;;;;4993703;28;20280;-67
2023/10/10 05:44:16;;;;;;;15.93;4.43;;;;;;;;;;4993982;28;20120;-67
2023/10/10 05:46:41;;;;;;;12.40;4.30;;;;;;;;;;4993664;28;20026;-67
2023/10/10 05:49:06;;;;;;;9.57;4.10;;;;;;;;;;4993696;28;20022;-67
2023/10/10 05:51:32;;;;;;;10.23;3.80;;;;;;;;;;4993935;28;20020;-66
2023/10/10 05:53:57;;;;;;;11.30;4.30;;;;;;;;;;4993615;28;20053;-67
2023/10/10 05:56:23;;;;;;;16.63;4.57;;;;;;;;;;4993668;28;20244;-66
2023/10/10 05:58:48;;;;;;;12.43;5.00;;;;;;;;;;4993581;28;20244;-67
2023/10/10 06:01:14;;;;;;;11.13;4.37;;;;;;;;;;4993649;28;20073;-66
2023/10/10 06:03:41;;;;;;;25.55;5.55;;;;;;;;;;4993791;28;20299;-66
2023/10/10 06:06:06;;;;;;;19.23;5.55;;;;;;;;;;4993580;28;20470;-67
2023/10/10 06:08:31;;;;;;;17.93;5.27;;;;;;;;;;4993590;28;20021;-67
2023/10/10 06:10:57;;;;;;;19.93;5.30;;;;;;;;;;4993444;28;20295;-66
2023/10/10 06:13:22;;;;;;;19.65;5.72;;;;;;;;;;4993507;28;20022;-67
2023/10/10 06:15:50;;;;;;;25.30;5.90;;;;;;;;;;4993486;28;20394;-67
2023/10/10 06:18:15;;;;;;;16.20;4.82;;;;;;;;;;4993727;28;20076;-66
2023/10/10 06:20:41;;;;;;;16.13;4.93;;;;;;;;;;4993688;28;20026;-67
2023/10/10 06:23:11;;;;;;;11.52;5.20;;;;;;;;;;4995911;28;20058;-67
2023/10/10 06:25:37;;;;;;;13.65;5.05;;;;;;;;;;4997031;28;20022;-67
2023/10/10 06:28:05;;;;;;;16.98;4.57;;;;;;;;;;4996972;28;20463;-67
2023/10/10 06:30:31;;;;;;;14.60;4.88;;;;;;;;;;4997246;28;20022;-67
2023/10/10 06:33:08;;;;;;;19.25;5.47;;;;;;;;;;4996992;28;20026;-66
2023/10/10 06:35:37;;;;;;;13.55;4.78;;;;;;;;;;4997020;28;20032;-67
2023/10/10 06:38:02;;;;;;;18.48;5.25;;;;;;;;;;4997096;28;20463;-67
2023/10/10 06:40:28;;;;;;;11.20;5.40;;;;;;;;;;4996867;28;20018;-66
2023/10/10 06:42:55;;;;;;;13.75;5.00;;;;;;;;;;4997148;28;20394;-67
2023/10/10 06:45:22;;;;;;;20.38;6.45;;;;;;;;;;4996601;28;20498;-66
2023/10/10 06:47:50;;;;;;;14.35;5.50;;;;;;;;;;4996678;28;20014;-66
2023/10/10 06:50:21;;;;;;;16.50;6.15;;;;;;;;;;4996928;28;20420;-66
2023/10/10 06:52:47;;;;;;;17.80;6.03;;;;;;;;;;4996566;28;20093;-66
2023/10/10 06:55:21;;;;;;;20.27;6.07;;;;;;;;;;4996753;28;20113;-66
2023/10/10 06:57:57;;;;;;;25.90;5.75;;;;;;;;;;4996470;28;20026;-66
2023/10/10 07:00:32;;;;;;;19.75;7.22;;;;;;;;;;4996723;28;20410;-66
2023/10/10 07:02:58;;;;;;;22.02;6.57;;;;;;;;;;4996530;28;20022;-66
2023/10/10 07:05:26;;;;;;;17.55;6.00;;;;;;;;;;4996574;28;20077;-66
2023/10/10 07:08:12;;;;;;;25.10;7.28;;;;;;;;;;4996579;28;20390;-66
2023/10/10 07:10:41;;;;;;;20.45;6.40;;;;;;;;;;4996066;28;20053;-66
2023/10/10 07:13:13;;;;;;;22.20;6.55;;;;;;;;;;4996438;28;20386;-66
2023/10/10 07:15:39;;;;;;;20.77;6.20;;;;;;;;;;4996151;28;20033;-66
2023/10/10 07:18:09;;;;;;;22.83;7.05;;;;;;;;;;4996388;28;20283;-66
2023/10/10 07:23:22;;;;;;;25.05;7.47;;;;;;;;;;4996010;28;20081;-66
2023/10/10 07:25:59;;;;;;;23.85;6.80;;;;;;;;;;4996164;28;20393;-66
2023/10/10 07:28:26;;;;;;;22.48;6.88;;;;;;;;;;4996189;28;20459;-67
2023/10/10 07:30:51;;;;;;;30.30;7.05;;;;;;;;;;4995817;28;20073;-67
2023/10/10 07:33:22;;;;;;;29.42;8.00;;;;;;;;;;4995415;28;20023;-66
2023/10/10 07:35:53;;;;;;;29.38;7.85;;;;;;;;;;4995693;28;20088;-66
2023/10/10 07:38:18;;;;;;;29.38;8.25;;;;;;;;;;4995811;28;20026;-67
2023/10/10 07:40:44;;;;;;;35.08;8.55;;;;;;;;;;4995681;28;20470;-66
2023/10/10 07:43:10;;;;;;;47.40;11.10;;;;;;;;;;4995642;28;20104;-66
2023/10/10 07:45:43;;;;;;;68.57;12.18;;;;;;;;;;4995760;28;20497;-66
2023/10/10 07:50:49;;;;;;;37.65;11.50;;;;;;;;;;4995782;28;20030;-66
2023/10/10 07:53:15;;;;;;;42.72;11.40;;;;;;;;;;4995825;28;20018;-66
2023/10/10 07:58:27;;;;;;;55.03;17.05;;;;;;;;;;4995366;28;20022;-67
2023/10/10 08:00:52;;;;;;;56.53;13.02;;;;;;;;;;4995325;28;20022;-67
2023/10/10 08:03:20;;;;;;;38.88;11.95;;;;;;;;;;4995524;28;20386;-67
2023/10/10 08:05:48;;;;;;;41.67;12.57;;;;;;;;;;4995160;28;20062;-67
2023/10/10 08:08:15;;;;;;;51.20;16.33;;;;;;;;;;4995187;28;20027;-66
2023/10/10 08:10:40;;;;;;;67.85;22.45;;;;;;;;;;4995012;28;20097;-67
2023/10/10 08:13:11;;;;;;;58.42;20.52;;;;;;;;;;4995157;28;20026;-67
2023/10/10 08:15:49;;;;;;;72.83;28.00;;;;;;;;;;4995091;28;20098;-67
2023/10/10 08:18:39;;;;;;;67.70;29.50;;;;;;;;;;4995241;28;20355;-67
2023/10/10 08:23:25;;;;;;;39.67;15.07;;;;;;;;;;4995145;28;20113;-66
2023/10/10 08:25:51;;;;;;;40.17;14.37;;;;;;;;;;4994811;28;20034;-66
2023/10/10 08:28:16;;;;;;;29.98;9.80;;;;;;;;;;4994778;28;20019;-66
2023/10/10 08:30:41;;;;;;;33.07;10.37;;;;;;;;;;4994792;28;20022;-66
2023/10/10 08:33:07;;;;;;;30.83;9.40;;;;;;;;;;4994718;28;20259;-67
2023/10/10 08:35:38;;;;;;;37.40;11.03;;;;;;;;;;4994746;28;20018;-67
2023/10/10 08:38:03;;;;;;;29.48;10.07;;;;;;;;;;4994595;28;20018;-67
2023/10/10 08:40:33;;;;;;;26.77;9.88;;;;;;;;;;4994861;28;20034;-67
2023/10/10 08:42:59;;;;;;;37.88;9.80;;;;;;;;;;4994639;28;20033;-67
2023/10/10 08:45:25;;;;;;;28.77;9.52;;;;;;;;;;4994321;28;20023;-67
2023/10/10 08:47:51;;;;;;;27.38;9.55;;;;;;;;;;4994420;28;20022;-67
2023/10/10 08:50:16;;;;;;;27.30;9.32;;;;;;;;;;4994386;28;20489;-67
2023/10/10 08:52:42;;;;;;;32.05;8.98;;;;;;;;;;4994358;28;20026;-66
2023/10/10 08:55:10;;;;;;;35.60;9.03;;;;;;;;;;4994323;28;20530;-67
2023/10/10 08:57:38;;;;;;;26.55;8.25;;;;;;;;;;4994555;28;20743;-67
2023/10/10 09:00:06;;;;;;;33.88;7.75;;;;;;;;;;4994520;28;20364;-67
2023/10/10 09:02:33;;;;;;;33.95;8.25;;;;;;;;;;4994631;28;20022;-66
2023/10/10 09:04:58;;;;;;;36.05;8.32;;;;;;;;;;4994184;28;20493;-67
2023/10/10 09:07:27;;;;;;;26.40;7.67;;;;;;;;;;4994174;28;20019;-67
2023/10/10 09:10:04;;;;;;;22.90;7.10;;;;;;;;;;4993874;28;20330;-67
2023/10/10 09:12:34;;;;;;;37.58;7.90;;;;;;;;;;4994143;28;20031;-67
2023/10/10 09:15:09;;;;;;;27.13;7.20;;;;;;;;;;4994065;28;20050;-67
2023/10/10 09:17:35;;;;;;;26.58;6.88;;;;;;;;;;4994325;28;20420;-67
2023/10/10 09:22:51;;;;;;;22.65;7.88;;;;;;;;;;4994263;28;20040;-67
2023/10/10 09:25:31;;;;;;;32.55;7.07;;;;;;;;;;4993838;28;20118;-67
2023/10/10 09:27:58;;;;;;;20.25;6.32;;;;;;;;;;4994302;28;20377;-67
2023/10/10 09:30:30;;;;;;;22.33;6.45;;;;;;;;;;4994171;28;20434;-67
2023/10/10 09:33:00;;;;;;;;;;;;;;;;;;4994600;28;20077;-67
2023/10/10 09:35:28;;;;;;;27.02;6.55;;;;;;;;;;4992572;28;19909;-67
2023/10/10 09:37:54;;;;;;;32.42;7.18;;;;;;;;;;4994102;28;20471;-67
2023/10/10 09:40:20;;;;;;;19.23;7.47;;;;;;;;;;4993766;28;20106;-67
2023/10/10 09:45:36;;;;;;;27.92;6.78;;;;;;;;;;4994024;28;20062;-67
2023/10/10 09:48:06;;;;;;;22.63;7.00;;;;;;;;;;4994016;28;20014;-66
2023/10/10 09:50:37;;;;;;;32.45;7.10;;;;;;;;;;4993970;28;20018;-67
2023/10/10 09:53:06;;;;;;;29.98;6.88;;;;;;;;;;4993671;28;20025;-67
2023/10/10 09:58:01;;;;;;;23.17;6.68;;;;;;;;;;4996081;28;20029;-66
2023/10/10 10:00:34;;;;;;;26.63;7.03;;;;;;;;;;4997768;28;20030;-67
2023/10/10 10:03:25;;;;;;;26.48;7.13;;;;;;;;;;4997788;28;20081;-66
2023/10/10 10:05:58;;;;;;;18.05;5.78;;;;;;;;;;4997255;28;20022;-67
2023/10/10 10:08:24;;;;;;;24.25;6.88;;;;;;;;;;4997436;28;20041;-67
2023/10/10 10:11:10;;;;;;;18.45;6.55;;;;;;;;;;4997187;28;20043;-66
2023/10/10 10:13:39;;;;;;;19.42;6.93;;;;;;;;;;4997370;28;20041;-67
2023/10/10 10:16:19;;;;;;;27.45;7.05;;;;;;;;;;4997308;28;20057;-67
2023/10/10 10:18:46;;;;;;;36.33;7.47;;;;;;;;;;4997503;28;20025;-67
2023/10/10 10:21:29;;;;;;;29.58;7.07;;;;;;;;;;4997408;28;20026;-67
2023/10/10 10:23:57;;;;;;;20.15;5.88;;;;;;;;;;4997054;28;20026;-67
2023/10/10 10:26:32;;;;;;;28.52;6.72;;;;;;;;;;4997357;28;20026;-67
2023/10/10 10:29:15;;;;;;;23.30;6.75;;;;;;;;;;4997324;28;20478;-67
2023/10/10 10:31:48;;;;;;;30.15;7.82;;;;;;;;;;4997248;28;20023;-67
2023/10/10 10:34:32;;;;;;;18.58;6.20;;;;;;;;;;4996901;28;20080;-67
2023/10/10 10:37:13;;;;;;;19.48;7.28;;;;;;;;;;4996891;28;20030;-67
2023/10/10 10:39:46;;;;;;;23.15;6.75;;;;;;;;;;4996894;28;20019;-67
2023/10/10 10:42:15;;;;;;;33.80;7.97;;;;;;;;;;4997077;28;20026;-67
2023/10/10 10:44:44;;;;;;;23.55;7.65;;;;;;;;;;4996957;28;20370;-67
2023/10/10 10:47:28;;;;;;;18.60;7.28;;;;;;;;;;4996677;28;20018;-67
2023/10/10 10:49:54;;;;;;;19.70;6.85;;;;;;;;;;4996952;28;20417;-67
2023/10/10 10:52:43;;;;;;;17.23;7.07;;;;;;;;;;4996814;28;20019;-67
2023/10/10 10:55:22;;;;;;;28.25;7.38;;;;;;;;;;4996726;28;20497;-67
2023/10/10 10:57:48;;;;;;;26.70;6.97;;;;;;;;;;4996784;28;20525;-67
2023/10/10 11:00:27;;;;;;;29.27;7.53;;;;;;;;;;4996514;28;20034;-67
2023/10/10 11:02:59;;;;;;;26.92;7.97;;;;;;;;;;4996676;28;20042;-67
2023/10/10 11:05:24;;;;;;;;;;;;;;;;;;4997015;28;20422;-67
2023/10/10 11:07:49;;;;;;;28.23;7.32;;;;;;;;;;4996368;28;20324;-67
2023/10/10 11:10:35;;;;;;;18.58;7.28;;;;;;;;;;4995147;28;20043;-67
2023/10/10 11:13:07;;;;;;;25.02;7.53;;;;;;;;;;4996153;28;20022;-67
2023/10/10 11:15:37;;;;;;;19.65;6.75;;;;;;;;;;4996464;28;20076;-67
2023/10/10 11:18:07;;;;;;;22.85;8.23;;;;;;;;;;4996132;28;20029;-67
2023/10/10 11:20:55;;;;;;;24.02;7.10;;;;;;;;;;4996175;28;20026;-67
2023/10/10 11:23:20;;;;;;;23.02;8.35;;;;;;;;;;4996151;28;20030;-67
2023/10/10 11:25:58;;;;;;;19.35;7.30;;;;;;;;;;4995988;28;20030;-67
2023/10/10 11:28:36;;;;;;;26.58;8.02;;;;;;;;;;4996196;28;20027;-67
2023/10/10 11:31:07;;;;;;;23.45;8.50;;;;;;;;;;4996177;28;20022;-67
2023/10/10 11:33:48;;;;;;;22.48;8.52;;;;;;;;;;4996150;28;20490;-67
2023/10/10 11:36:20;;;;;;;22.40;8.98;;;;;;;;;;4996106;28;20019;-67
2023/10/10 11:38:55;;;;;;;;;;;;;;;;;;4996200;28;20168;-67
2023/10/10 11:41:30;;;;;;;27.52;8.60;;;;;;;;;;4995967;28;19906;-67
2023/10/10 11:44:04;;;;;;;28.45;9.25;;;;;;;;;;4995874;28;20482;-67
2023/10/10 11:46:29;;;;;;;27.25;9.80;;;;;;;;;;4995885;28;20474;-67
2023/10/10 11:48:55;;;;;;;26.10;8.43;;;;;;;;;;4995512;28;20073;-67
2023/10/10 11:51:36;;;;;;;25.85;8.82;;;;;;;;;;4995498;28;20068;-67
2023/10/10 11:54:01;;;;;;;22.80;7.93;;;;;;;;;;4995451;28;20470;-67
2023/10/10 11:56:27;;;;;;;23.98;7.80;;;;;;;;;;4995420;28;20022;-67
2023/10/10 11:58:52;;;;;;;22.17;8.30;;;;;;;;;;4995390;28;20467;-67
2023/10/10 12:01:47;;;;;;;17.58;7.03;;;;;;;;;;4995263;28;20025;-67
2023/10/10 12:04:20;;;;;;;23.65;7.53;;;;;;;;;;4995095;28;20023;-67
2023/10/10 12:06:45;;;;;;;18.63;6.70;;;;;;;;;;4995490;28;20529;-67
2023/10/10 12:09:13;;;;;;;23.13;7.65;;;;;;;;;;4995104;28;20019;-67
2023/10/10 12:11:38;;;;;;;18.10;6.88;;;;;;;;;;4995125;28;20033;-67
2023/10/10 12:14:04;;;;;;;20.50;6.65;;;;;;;;;;4995068;28;20022;-67
2023/10/10 12:16:29;;;;;;;16.98;6.40;;;;;;;;;;4995135;28;20018;-67
2023/10/10 12:18:54;;;;;;;18.83;6.10;;;;;;;;;;4995027;28;20033;-67
2023/10/10 12:21:22;;;;;;;24.83;6.85;;;;;;;;;;4994779;28;20021;-67
2023/10/10 12:23:55;;;;;;;14.95;5.57;;;;;;;;;;4994856;28;20018;-67
2023/10/10 12:26:22;;;;;;;15.52;5.68;;;;;;;;;;4994807;28;20213;-67
2023/10/10 12:28:48;;;;;;;21.38;5.80;;;;;;;;;;4994758;28;20022;-67
2023/10/10 12:31:16;;;;;;;14.13;5.55;;;;;;;;;;4995061;28;20113;-67
2023/10/10 12:33:45;;;;;;;17.30;5.82;;;;;;;;;;4994787;28;20533;-67
2023/10/10 12:36:10;;;;;;;15.57;7.30;;;;;;;;;;4994940;28;20077;-67
2023/10/10 12:38:37;;;;;;;15.60;6.33;;;;;;;;;;4994661;28;20422;-67
2023/10/10 12:41:05;;;;;;;18.65;6.18;;;;;;;;;;4994884;28;20050;-67
2023/10/10 12:43:30;;;;;;;13.38;5.07;;;;;;;;;;4994828;28;20026;-67
2023/10/10 12:45:55;;;;;;;25.00;5.60;;;;;;;;;;4994482;28;20031;-67
2023/10/10 12:48:20;;;;;;;15.00;5.23;;;;;;;;;;4994492;28;20466;-67
2023/10/10 12:50:50;;;;;;;12.38;5.47;;;;;;;;;;4994445;28;20126;-67
2023/10/10 12:53:16;;;;;;;20.80;5.70;;;;;;;;;;4994695;28;20156;-67
2023/10/10 12:56:48;;;;;;;14.40;5.20;;;;;;;;;;4994525;28;20053;-67
2023/10/10 12:58:43;;;;;;;15.50;5.75;;;;;;;;;;4985391;28;20061;-67
2023/10/10 13:01:12;;;;;;;16.27;5.90;;;;;;;;;;4994278;28;20083;-67
2023/10/10 13:03:37;;;;;;;15.30;5.40;;;;;;;;;;4994497;28;20533;-67
2023/10/10 13:06:04;;;;;;;16.85;5.18;;;;;;;;;;4994403;28;20026;-67
2023/10/10 13:08:39;;;;;;;26.23;6.60;;;;;;;;;;4994450;28;20019;-67
2023/10/10 13:11:32;;;;;;;21.23;5.20;;;;;;;;;;4994143;28;20069;-67
2023/10/10 13:14:08;;;;;;;13.82;5.07;;;;;;;;;;4994092;28;20097;-67
2023/10/10 13:19:18;;;;;;;14.07;5.65;;;;;;;;;;4994306;28;20027;-67
2023/10/10 13:21:43;;;;;;;19.27;6.25;;;;;;;;;;4994266;28;20030;-67
2023/10/10 13:24:13;;;;;;;22.20;5.93;;;;;;;;;;4993882;28;20539;-67
2023/10/10 13:26:45;;;;;;;21.33;5.93;;;;;;;;;;4994228;28;20018;-67
2023/10/10 13:29:10;;;;;;;19.85;5.85;;;;;;;;;;4993891;28;20022;-67
2023/10/10 13:31:37;;;;;;;15.57;5.43;;;;;;;;;;4993233;28;20026;-67
2023/10/10 13:34:03;;;;;;;12.73;5.68;;;;;;;;;;4993932;28;20735;-67
2023/10/10 13:36:29;;;;;;;15.48;5.32;;;;;;;;;;4993816;28;20025;-67
2023/10/10 13:38:59;;;;;;;14.97;5.20;;;;;;;;;;4993875;28;20030;-67
2023/10/10 13:41:27;;;;;;;14.15;5.15;;;;;;;;;;4994045;28;20015;-67
2023/10/10 13:43:53;;;;;;;15.73;5.93;;;;;;;;;;4993867;28;20026;-67
2023/10/10 13:46:19;;;;;;;13.80;5.70;;;;;;;;;;4993724;28;20026;-67
2023/10/10 13:48:44;;;;;;;16.58;5.78;;;;;;;;;;4994043;28;20026;-67
2023/10/10 13:51:10;;;;;;;16.17;5.85;;;;;;;;;;4993991;28;20081;-67
2023/10/10 13:53:37;;;;;;;15.82;5.95;;;;;;;;;;4993755;28;20387;-67
2023/10/10 13:56:03;;;;;;;24.08;5.97;;;;;;;;;;4993569;28;20022;-67
2023/10/10 13:58:29;;;;;;;18.88;5.85;;;;;;;;;;4993662;28;20019;-67
2023/10/10 14:01:13;;;;;;;18.27;5.82;;;;;;;;;;4993720;28;20497;-67
2023/10/10 14:03:45;;;;;;;25.45;7.10;;;;;;;;;;4993731;28;20462;-67
2023/10/10 14:06:12;;;;;;;;;;;;;;;;;;4994255;28;20035;-67
2023/10/10 14:08:38;;;;;;;16.83;5.70;;;;;;;;;;4993853;28;20316;-67
2023/10/10 14:11:04;;;;;;;13.35;5.75;;;;;;;;;;4993447;28;20046;-67
2023/10/10 14:13:29;;;;;;;14.02;5.55;;;;;;;;;;4992264;28;20019;-67
2023/10/10 14:15:55;;;;;;;20.25;6.38;;;;;;;;;;4993551;28;20031;-67
2023/10/10 14:18:24;;;;;;;24.77;6.35;;;;;;;;;;4993398;28;20023;-67
2023/10/10 14:20:50;;;;;;;20.48;6.72;;;;;;;;;;4993526;28;20023;-67
2023/10/10 14:23:19;;;;;;;15.93;5.95;;;;;;;;;;4993486;28;20389;-67
2023/10/10 14:25:49;;;;;;;19.08;5.97;;;;;;;;;;4993631;28;20379;-67
2023/10/10 14:28:16;;;;;;;24.58;5.45;;;;;;;;;;4993700;28;20382;-67
2023/10/10 14:30:50;;;;;;;17.35;5.22;;;;;;;;;;4993368;28;20122;-67
2023/10/10 14:33:17;;;;;;;20.33;5.80;;;;;;;;;;4993653;28;20594;-67
2023/10/10 14:35:43;;;;;;;14.45;5.30;;;;;;;;;;4993301;28;20018;-67
2023/10/10 14:38:09;;;;;;;24.60;5.47;;;;;;;;;;4993586;28;20110;-67
2023/10/10 14:40:34;;;;;;;17.38;4.93;;;;;;;;;;4992801;28;20050;-67
2023/10/10 14:43:05;;;;;;;12.20;5.23;;;;;;;;;;4992748;28;20026;-67
2023/10/10 14:45:32;;;;;;;17.25;5.45;;;;;;;;;;4996100;28;20771;-67
2023/10/10 14:47:58;;;;;;;16.50;5.72;;;;;;;;;;4996447;28;20434;-67
2023/10/10 14:50:23;;;;;;;21.80;5.70;;;;;;;;;;4996116;28;20084;-67
2023/10/10 14:52:51;;;;;;;29.70;6.10;;;;;;;;;;4995862;28;20026;-67
2023/10/10 14:55:27;;;;;;;17.50;4.88;;;;;;;;;;4996255;28;20030;-67
2023/10/10 14:57:55;;;;;;;15.07;5.55;;;;;;;;;;4995824;28;20029;-67
2023/10/10 15:00:25;;;;;;;29.27;6.30;;;;;;;;;;4995388;28;20474;-67
2023/10/10 15:02:53;;;;;;;21.08;5.85;;;;;;;;;;4995850;28;20032;-67
2023/10/10 15:05:19;;;;;;;25.55;6.22;;;;;;;;;;4996067;28;20018;-67
2023/10/10 15:07:45;;;;;;;17.25;5.97;;;;;;;;;;4994963;28;20378;-67
2023/10/10 15:10:10;;;;;;;13.73;5.47;;;;;;;;;;4989357;28;20053;-68
2023/10/10 15:12:36;;;;;;;14.25;5.35;;;;;;;;;;4987716;28;20022;-67
2023/10/10 15:15:01;;;;;;;17.13;6.30;;;;;;;;;;4992789;28;20029;-67
2023/10/10 15:17:27;;;;;;;22.50;5.63;;;;;;;;;;4992158;28;20048;-67
2023/10/10 15:19:52;;;;;;;22.10;5.40;;;;;;;;;;4986705;28;20268;-67
2023/10/10 15:22:18;;;;;;;21.92;6.28;;;;;;;;;;4994855;28;20025;-67
2023/10/10 15:24:49;;;;;;;15.57;5.20;;;;;;;;;;4990893;28;20027;-67
2023/10/10 15:27:15;;;;;;;18.63;5.47;;;;;;;;;;4994385;28;20581;-67
2023/10/10 15:29:42;;;;;;;14.45;5.68;;;;;;;;;;4994965;28;20346;-67
2023/10/10 15:32:07;;;;;;;18.00;5.22;;;;;;;;;;4994275;28;20030;-67
2023/10/10 15:34:32;;;;;;;18.90;4.97;;;;;;;;;;4994736;28;20448;-67
2023/10/10 15:37:00;;;;;;;14.63;5.03;;;;;;;;;;4994804;28;20273;-67
2023/10/10 15:39:25;;;;;;;35.47;6.13;;;;;;;;;;4994322;28;20451;-67
2023/10/10 15:41:50;;;;;;;25.10;6.07;;;;;;;;;;4994722;28;20030;-67
2023/10/10 15:44:16;;;;;;;26.20;6.07;;;;;;;;;;4994556;28;20018;-67
2023/10/10 15:46:43;;;;;;;19.77;5.07;;;;;;;;;;4994609;28;20694;-67
2023/10/10 15:49:12;;;;;;;25.92;5.18;;;;;;;;;;4994484;28;20030;-67
2023/10/10 15:51:38;;;;;;;14.20;5.45;;;;;;;;;;4994871;28;20029;-67
2023/10/10 15:54:08;;;;;;;10.95;5.00;;;;;;;;;;4994039;28;20389;-67
2023/10/10 15:56:33;;;;;;;23.10;5.25;;;;;;;;;;4993586;28;20030;-67
2023/10/10 15:58:58;;;;;;;18.83;5.00;;;;;;;;;;4994347;28;20390;-67
2023/10/10 16:01:27;;;;;;;16.70;5.50;;;;;;;;;;4994241;28;20541;-67
2023/10/10 16:04:23;;;;;;;19.98;5.32;;;;;;;;;;4994373;28;20729;-67
2023/10/10 16:06:50;;;;;;;23.98;6.15;;;;;;;;;;4986648;28;20117;-67
2023/10/10 16:09:30;;;;;;;24.92;5.78;;;;;;;;;;4993432;28;20081;-67
2023/10/10 16:11:55;;;;;;;23.65;5.22;;;;;;;;;;4988155;28;20545;-67
2023/10/10 16:14:21;;;;;;;16.08;4.88;;;;;;;;;;4994024;28;20058;-67
2023/10/10 16:16:47;;;;;;;16.98;5.20;;;;;;;;;;4994109;28;20393;-67
2023/10/10 16:19:29;;;;;;;15.55;5.03;;;;;;;;;;4993638;28;20031;-67
2023/10/10 16:21:54;;;;;;;13.00;5.30;;;;;;;;;;4994070;28;20029;-67
2023/10/10 16:24:20;;;;;;;13.73;5.25;;;;;;;;;;4993542;28;20441;-67
2023/10/10 16:26:47;;;;;;;15.15;5.57;;;;;;;;;;4992057;28;20014;-67
2023/10/10 16:29:15;;;;;;;14.55;5.60;;;;;;;;;;4993778;28;20495;-67
2023/10/10 16:31:43;;;;;;;13.98;5.20;;;;;;;;;;4993796;28;20028;-67
2023/10/10 16:34:08;;;;;;;19.13;5.00;;;;;;;;;;4993936;28;20026;-67
2023/10/10 16:36:34;;;;;;;13.50;5.18;;;;;;;;;;4993601;28;20045;-67
2023/10/10 16:38:59;;;;;;;12.70;4.90;;;;;;;;;;4993099;28;20123;-67
2023/10/10 16:41:24;;;;;;;15.63;5.17;;;;;;;;;;4993427;28;20116;-67
2023/10/10 16:43:49;;;;;;;15.10;4.73;;;;;;;;;;4993665;28;20044;-67
2023/10/10 16:46:15;;;;;;;16.25;5.32;;;;;;;;;;4993476;28;20433;-67
2023/10/10 16:48:40;;;;;;;16.95;6.03;;;;;;;;;;4993317;28;20143;-67
2023/10/10 16:51:09;;;;;;;18.55;5.05;;;;;;;;;;4993403;28;20045;-67
2023/10/10 16:53:43;;;;;;;18.17;5.40;;;;;;;;;;4993496;28;20470;-67
2023/10/10 16:56:09;;;;;;;14.82;4.70;;;;;;;;;;4986074;28;20415;-67
2023/10/10 16:58:42;;;;;;;12.75;4.85;;;;;;;;;;4993438;28;20173;-67
2023/10/10 17:01:15;;;;;;;19.60;5.68;;;;;;;;;;4993417;28;20022;-67
2023/10/10 17:03:48;;;;;;;16.45;4.85;;;;;;;;;;4993964;28;20033;-69
2023/10/10 17:06:17;;;;;;;32.95;6.03;;;;;;;;;;4993496;28;20065;-69
2023/10/10 17:08:46;;;;;;;17.48;4.85;;;;;;;;;;4993711;28;20459;-66
2023/10/10 17:11:11;;;;;;;18.85;5.60;;;;;;;;;;4993358;28;20518;-70
2023/10/10 17:13:40;;;;;;;25.75;6.15;;;;;;;;;;4993865;28;20014;-70
2023/10/10 17:16:12;;;;;;;24.65;5.45;;;;;;;;;;4992580;28;20027;-70